createdAt,value
2022-10-29T00:03:56.171Z,13.3
2022-10-29T00:09:01.235Z,13.1
2022-10-29T00:14:06.360Z,13.2
2022-10-29T00:19:11.503Z,13.7
2022-10-29T00:24:17.571Z,15
2022-10-29T00:29:23.713Z,15.8
2022-10-29T00:34:29.798Z,15.4
2022-10-29T00:39:35.910Z,16
2022-10-29T00:44:42.021Z,16.1
2022-10-29T00:49:48.142Z,16
2022-10-29T00:54:54.310Z,15.9
2022-10-29T01:00:00.466Z,15.4
2022-10-29T01:05:06.542Z,15
2022-10-29T01:10:12.715Z,14.7
2022-10-29T01:15:18.801Z,14.1
2022-10-29T01:20:24.882Z,13.5
2022-10-29T01:25:30.017Z,13.2
2022-10-29T01:30:36.103Z,12.8
2022-10-29T01:35:42.221Z,12.7
2022-10-29T01:40:48.334Z,12.5
2022-10-29T01:45:54.442Z,12.7
2022-10-29T01:51:00.551Z,13.1
2022-10-29T01:56:06.697Z,14.1
2022-10-29T02:01:11.805Z,14.6
2022-10-29T02:06:16.937Z,14.6
2022-10-29T02:11:22.068Z,14.1
2022-10-29T02:16:27.271Z,13.4
2022-10-29T02:21:32.359Z,12.8
2022-10-29T02:26:37.446Z,12.6
2022-10-29T02:31:43.558Z,12.6
2022-10-29T02:36:49.681Z,12.4
2022-10-29T02:41:54.805Z,12.5
2022-10-29T02:46:59.946Z,12.1
2022-10-29T02:52:06.077Z,12.1
2022-10-29T02:57:12.157Z,12.2
2022-10-29T03:02:18.298Z,12.5
2022-10-29T03:07:24.388Z,12.7
2022-10-29T03:12:30.527Z,12.8
2022-10-29T03:17:36.647Z,12.8
2022-10-29T03:22:42.772Z,12.9
2022-10-29T03:27:48.892Z,12.9
2022-10-29T03:32:54.988Z,13
2022-10-29T03:38:01.076Z,13.1
2022-10-29T03:43:07.211Z,13
2022-10-29T03:48:13.303Z,12.9
2022-10-29T03:53:18.471Z,12.9
2022-10-29T03:58:24.592Z,12.7
2022-10-29T04:03:30.690Z,12.6
2022-10-29T04:08:36.812Z,12.5
2022-10-29T04:13:41.935Z,12.3
2022-10-29T04:18:48.055Z,12.3
2022-10-29T04:23:54.178Z,12.1
2022-10-29T04:28:59.324Z,12.2
2022-10-29T04:34:04.514Z,12.1
2022-10-29T04:39:10.560Z,12.1
2022-10-29T04:44:15.671Z,11.9
2022-10-29T04:49:20.802Z,11.7
2022-10-29T04:54:26.922Z,11.8
2022-10-29T04:59:33.067Z,11.6
2022-10-29T05:04:39.123Z,11.7
2022-10-29T05:09:45.250Z,11.8
2022-10-29T05:14:51.359Z,11.5
2022-10-29T05:19:57.549Z,11.4
2022-10-29T05:25:03.641Z,11.1
2022-10-29T05:30:09.711Z,11.6
2022-10-29T05:35:15.815Z,11.5
2022-10-29T05:40:21.939Z,11.4
2022-10-29T05:45:28.066Z,11.3
2022-10-29T05:50:34.163Z,11.2
2022-10-29T05:55:39.309Z,11.1
2022-10-29T06:00:45.488Z,11.1
2022-10-29T06:05:51.510Z,11.2
2022-10-29T06:10:57.632Z,11
2022-10-29T06:16:03.747Z,11
2022-10-29T06:21:09.902Z,11.1
2022-10-29T06:26:16.002Z,11.5
2022-10-29T06:31:21.132Z,11.7
2022-10-29T06:36:26.269Z,12.1
2022-10-29T06:41:32.383Z,12.2
2022-10-29T06:46:38.494Z,12.3
2022-10-29T06:51:44.606Z,12.5
2022-10-29T06:56:50.712Z,12.7
2022-10-29T07:01:56.829Z,12.8
2022-10-29T07:07:02.945Z,13.2
2022-10-29T07:12:09.044Z,13.5
2022-10-29T07:17:15.154Z,13.6
2022-10-29T07:22:21.272Z,13.7
2022-10-29T07:27:27.383Z,14.2
2022-10-29T07:32:33.492Z,14.7
2022-10-29T07:37:39.597Z,15
2022-10-29T07:42:44.753Z,15.1
2022-10-29T07:47:50.910Z,15.4
2022-10-29T07:52:56.961Z,16.1
2022-10-29T07:58:03.056Z,16.3
2022-10-29T08:03:09.245Z,16.7
2022-10-29T08:08:15.285Z,17.1
2022-10-29T08:13:21.405Z,17.3
2022-10-29T08:18:26.529Z,17.6
2022-10-29T08:23:31.660Z,17.9
2022-10-29T08:28:36.803Z,18.1
2022-10-29T08:33:41.914Z,17.8
2022-10-29T08:38:47.050Z,17.6
2022-10-29T08:43:52.176Z,17.5
2022-10-29T08:48:58.318Z,17.6
2022-10-29T08:54:04.416Z,17.8
2022-10-29T08:59:10.509Z,18.1
2022-10-29T09:04:16.638Z,18.1
2022-10-29T09:09:22.737Z,18.6
2022-10-29T09:14:28.973Z,19.4
2022-10-29T09:19:34.964Z,19.6
2022-10-29T09:24:41.079Z,19.9
2022-10-29T09:29:47.180Z,19.7
2022-10-29T09:34:53.306Z,19.6
2022-10-29T09:39:59.404Z,19.2
2022-10-29T09:45:05.510Z,19.6
2022-10-29T09:50:10.650Z,21.8
2022-10-29T09:55:16.763Z,23
2022-10-29T10:00:22.874Z,23.6
2022-10-29T10:05:28.997Z,23.5
2022-10-29T10:10:35.136Z,23
2022-10-29T10:15:41.202Z,23.3
2022-10-29T10:20:47.310Z,23.8
2022-10-29T10:25:52.445Z,23.2
2022-10-29T10:30:57.583Z,23.2
2022-10-29T10:36:03.705Z,23
2022-10-29T10:41:09.800Z,23.3
2022-10-29T10:46:15.948Z,22.9
2022-10-29T10:51:22.033Z,22.8
2022-10-29T10:56:28.141Z,22.3
2022-10-29T11:01:34.254Z,21.3
2022-10-29T11:06:40.426Z,22.9
2022-10-29T11:11:46.474Z,23.2
2022-10-29T11:16:52.601Z,22.1
2022-10-29T11:21:58.698Z,22.1
2022-10-29T11:27:04.815Z,21.8
2022-10-29T11:32:10.968Z,21.7
2022-10-29T11:37:16.049Z,22.9
2022-10-29T11:42:22.163Z,23.2
2022-10-29T11:47:28.287Z,23
2022-10-29T11:52:34.377Z,22.2
2022-10-29T11:57:40.533Z,21.9
2022-10-29T12:02:46.650Z,21.7
2022-10-29T12:07:52.799Z,21.8
2022-10-29T12:12:57.896Z,21.6
2022-10-29T12:18:03.025Z,22.2
2022-10-29T12:23:08.187Z,21.4
2022-10-29T12:28:13.270Z,20.9
2022-10-29T12:33:18.431Z,21.1
2022-10-29T12:38:23.544Z,21.4
2022-10-29T12:43:28.713Z,21.7
2022-10-29T12:48:33.808Z,21.7
2022-10-29T12:53:39.925Z,21.5
2022-10-29T12:58:46.042Z,21.2
2022-10-29T13:03:52.129Z,21.3
2022-10-29T13:08:58.298Z,21.3
2022-10-29T13:14:04.381Z,20.9
2022-10-29T13:19:10.473Z,20.8
2022-10-29T13:24:16.651Z,20.6
2022-10-29T13:29:22.687Z,21
2022-10-29T13:34:28.802Z,21.1
2022-10-29T13:39:34.937Z,21.7
2022-10-29T13:44:41.015Z,24.1
2022-10-29T13:49:47.143Z,23.4
2022-10-29T13:54:52.273Z,22.3
2022-10-29T13:59:58.372Z,22.6
2022-10-29T14:05:04.493Z,21.9
2022-10-29T14:10:10.640Z,20.9
2022-10-29T14:15:16.764Z,20.2
2022-10-29T14:20:22.824Z,19.8
2022-10-29T14:25:28.951Z,19.7
2022-10-29T14:30:34.055Z,20.7
2022-10-29T14:35:39.183Z,20.3
2022-10-29T14:40:45.314Z,20.1
2022-10-29T14:45:51.413Z,19.8
2022-10-29T14:50:57.519Z,19.1
2022-10-29T14:56:03.643Z,18.6
2022-10-29T15:01:09.767Z,18.3
2022-10-29T15:06:15.948Z,17.8
2022-10-29T15:11:22.002Z,17.6
2022-10-29T15:16:28.119Z,17.4
2022-10-29T15:21:34.236Z,17.3
2022-10-29T15:26:40.401Z,17.1
2022-10-29T15:31:46.456Z,16.8
2022-10-29T15:36:52.666Z,16.4
2022-10-29T15:41:57.704Z,16.1
2022-10-29T15:47:03.813Z,15.9
2022-10-29T15:52:09.919Z,15.7
2022-10-29T15:57:16.077Z,15.5
2022-10-29T16:02:22.182Z,15.3
2022-10-29T16:07:28.306Z,15.3
2022-10-29T16:12:34.458Z,15.3
2022-10-29T16:17:39.556Z,15.3
2022-10-29T16:22:44.672Z,15.2
2022-10-29T16:27:50.786Z,15.1
2022-10-29T16:32:56.894Z,15
2022-10-29T16:38:03.012Z,14.9
2022-10-29T16:43:09.165Z,14.9
2022-10-29T16:48:15.268Z,14.9
2022-10-29T16:53:21.343Z,15
2022-10-29T16:58:27.462Z,15
2022-10-29T17:03:33.594Z,14.8
2022-10-29T17:08:39.732Z,14.6
2022-10-29T17:13:45.776Z,14.6
2022-10-29T17:18:51.898Z,14.7
2022-10-29T17:23:58.005Z,14.6
2022-10-29T17:29:03.126Z,14.5
2022-10-29T17:34:09.267Z,14.2
2022-10-29T17:39:15.419Z,14.1
2022-10-29T17:44:21.481Z,14.2
2022-10-29T17:49:27.606Z,14
2022-10-29T17:54:33.688Z,13.8
2022-10-29T17:59:39.803Z,13.9
2022-10-29T18:04:44.940Z,13.8
2022-10-29T18:09:50.105Z,13.7
2022-10-29T18:14:56.224Z,13.7
2022-10-29T18:20:02.318Z,13.7
2022-10-29T18:25:08.429Z,13.5
2022-10-29T18:30:14.526Z,13.7
2022-10-29T18:35:20.629Z,13.6
2022-10-29T18:40:26.755Z,13.6
2022-10-29T18:45:32.853Z,13.9
2022-10-29T18:50:38.977Z,13.9
2022-10-29T18:55:45.075Z,14.2
2022-10-29T19:00:51.201Z,13.9
2022-10-29T19:05:57.300Z,13.7
2022-10-29T19:11:03.404Z,13.6
2022-10-29T19:16:08.563Z,13.7
2022-10-29T19:21:14.648Z,13.6
2022-10-29T19:26:20.801Z,13.5
2022-10-29T19:31:26.878Z,13.2
2022-10-29T19:36:32.988Z,12.9
2022-10-29T19:41:39.142Z,13
2022-10-29T19:46:45.211Z,12.8
2022-10-29T19:51:50.365Z,12.8
2022-10-29T19:56:55.474Z,12.6
2022-10-29T20:02:00.616Z,12.4
2022-10-29T20:07:05.751Z,12.5
2022-10-29T20:12:10.868Z,12.5
2022-10-29T20:17:16.000Z,12.4
2022-10-29T20:22:21.117Z,12.3
2022-10-29T20:27:26.261Z,12.4
2022-10-29T20:32:32.372Z,12.3
2022-10-29T20:37:38.476Z,12.7
2022-10-29T20:42:44.588Z,12.6
2022-10-29T20:47:50.718Z,12.5
2022-10-29T20:52:56.853Z,12.5
2022-10-29T20:58:02.939Z,12.9
2022-10-29T21:03:09.031Z,12.8
2022-10-29T21:08:15.175Z,13.2
2022-10-29T21:13:21.260Z,13
2022-10-29T21:18:26.397Z,13
2022-10-29T21:23:32.502Z,12.9
2022-10-29T21:28:38.641Z,12.7
2022-10-29T21:33:44.738Z,13
2022-10-29T21:38:50.891Z,13
2022-10-29T21:43:57.016Z,12.8
2022-10-29T21:49:03.058Z,13
2022-10-29T21:54:09.191Z,13.1
2022-10-29T21:59:15.327Z,12.8
2022-10-29T22:04:21.409Z,12.6
2022-10-29T22:09:26.540Z,12.5
2022-10-29T22:14:31.700Z,12.4
2022-10-29T22:19:36.830Z,12.8
2022-10-29T22:24:41.964Z,12.5
2022-10-29T22:29:48.081Z,12.3
2022-10-29T22:34:54.194Z,12.5
2022-10-29T22:40:00.336Z,13.1
2022-10-29T22:45:06.421Z,12.9
2022-10-29T22:50:12.530Z,12.8
2022-10-29T22:55:18.705Z,13
2022-10-29T23:00:24.735Z,12.9
2022-10-29T23:05:30.861Z,13.1
2022-10-29T23:10:37.016Z,12.9
2022-10-29T23:15:43.114Z,12.7
2022-10-29T23:20:49.215Z,12.4
2022-10-29T23:25:55.327Z,12.1
2022-10-29T23:31:00.430Z,12
2022-10-29T23:41:12.661Z,12.4
2022-10-29T23:46:18.777Z,12.2
2022-10-29T23:51:24.929Z,12.1
2022-10-29T23:56:31.012Z,12.4
